createdAt,value
2018-04-25T00:02:02.690Z,12.70
2018-04-25T00:04:30.574Z,12.70
2018-04-25T00:06:58.530Z,12.80
2018-04-25T00:09:26.428Z,12.80
2018-04-25T00:11:53.988Z,12.80
2018-04-25T00:14:21.491Z,12.80
2018-04-25T00:16:48.988Z,12.80
2018-04-25T00:19:16.487Z,12.80
2018-04-25T00:21:43.962Z,12.80
2018-04-25T00:24:11.475Z,12.90
2018-04-25T00:26:39.009Z,12.90
2018-04-25T00:29:06.916Z,12.90
2018-04-25T00:31:34.421Z,12.90
2018-04-25T00:34:02.346Z,12.90
2018-04-25T00:36:29.847Z,12.90
2018-04-25T00:38:58.109Z,12.80
2018-04-25T00:41:26.337Z,12.80
2018-04-25T00:43:54.347Z,12.80
2018-04-25T00:46:21.840Z,12.80
2018-04-25T00:48:49.329Z,12.90
2018-04-25T00:51:16.847Z,12.90
2018-04-25T00:53:44.737Z,12.90
2018-04-25T00:56:12.273Z,12.90
2018-04-25T00:58:39.809Z,12.80
2018-04-25T01:01:07.334Z,12.80
2018-04-25T01:03:34.858Z,12.80
2018-04-25T01:06:02.357Z,12.90
2018-04-25T01:08:29.861Z,12.90
2018-04-25T01:10:57.747Z,12.90
2018-04-25T01:13:25.222Z,12.90
2018-04-25T01:15:52.719Z,13.00
2018-04-25T01:18:20.608Z,13.10
2018-04-25T01:20:48.508Z,13.10
2018-04-25T01:23:19.877Z,13.10
2018-04-25T01:25:47.365Z,13.10
2018-04-25T01:28:18.092Z,13.20
2018-04-25T01:30:48.890Z,13.20
2018-04-25T01:33:22.618Z,13.20
2018-04-25T01:36:08.475Z,13.20
2018-04-25T01:38:38.690Z,13.30
2018-04-25T01:41:08.109Z,13.30
2018-04-25T01:43:35.631Z,13.30
2018-04-25T01:46:06.600Z,13.30
2018-04-25T01:51:40.611Z,13.20
2018-04-25T01:54:20.127Z,13.30
2018-04-25T01:56:59.383Z,13.30
2018-04-25T01:59:38.606Z,13.30
2018-04-25T02:02:05.703Z,13.30
2018-04-25T02:04:33.348Z,13.40
2018-04-25T02:07:00.921Z,13.50
2018-04-25T02:09:28.434Z,13.50
2018-04-25T02:11:55.932Z,13.60
2018-04-25T02:14:23.503Z,13.70
2018-04-25T02:16:51.031Z,13.70
2018-04-25T02:19:18.541Z,13.80
2018-04-25T02:21:46.413Z,13.80
2018-04-25T02:24:14.367Z,13.80
2018-04-25T02:26:41.806Z,13.80
2018-04-25T02:29:09.387Z,13.80
2018-04-25T02:31:36.820Z,13.80
2018-04-25T02:34:04.329Z,13.80
2018-04-25T02:36:31.834Z,13.80
2018-04-25T02:38:59.323Z,13.90
2018-04-25T02:41:27.211Z,14.00
2018-04-25T02:43:54.714Z,14.10
2018-04-25T02:46:22.231Z,14.10
2018-04-25T02:48:49.728Z,14.10
2018-04-25T02:51:17.235Z,14.20
2018-04-25T02:53:44.738Z,14.20
2018-04-25T02:56:12.214Z,14.20
2018-04-25T02:58:39.724Z,14.20
2018-04-25T03:01:07.212Z,14.20
2018-04-25T03:03:34.706Z,14.30
2018-04-25T03:06:02.607Z,14.30
2018-04-25T03:08:30.121Z,14.30
2018-04-25T03:10:58.001Z,14.40
2018-04-25T03:13:25.887Z,14.40
2018-04-25T03:15:53.410Z,14.40
2018-04-25T03:18:21.301Z,14.40
2018-04-25T03:20:48.800Z,14.40
2018-04-25T03:23:16.299Z,14.40
2018-04-25T03:25:44.181Z,14.40
2018-04-25T03:28:11.696Z,14.40
2018-04-25T03:30:39.200Z,14.50
2018-04-25T03:33:06.696Z,14.50
2018-04-25T03:35:34.213Z,14.50
2018-04-25T03:38:01.712Z,14.50
2018-04-25T03:40:29.224Z,14.60
2018-04-25T03:42:57.454Z,14.60
2018-04-25T03:45:24.956Z,14.60
2018-04-25T03:47:52.461Z,14.60
2018-04-25T03:50:19.962Z,14.60
2018-04-25T03:52:47.849Z,14.60
2018-04-25T03:55:15.344Z,14.60
2018-04-25T03:57:42.852Z,14.60
2018-04-25T04:00:10.411Z,14.60
2018-04-25T04:02:37.864Z,14.60
2018-04-25T04:05:05.377Z,14.50
2018-04-25T04:07:32.938Z,14.50
2018-04-25T04:10:00.417Z,14.60
2018-04-25T04:12:28.313Z,14.60
2018-04-25T04:14:55.810Z,14.60
2018-04-25T04:17:23.308Z,14.60
2018-04-25T04:19:51.208Z,14.60
2018-04-25T04:22:18.706Z,14.60
2018-04-25T04:24:46.241Z,14.60
2018-04-25T04:27:13.721Z,14.60
2018-04-25T04:29:41.219Z,14.60
2018-04-25T04:32:08.709Z,14.60
2018-04-25T04:34:36.218Z,14.60
2018-04-25T04:37:03.719Z,14.60
2018-04-25T04:39:31.214Z,14.60
2018-04-25T04:41:59.118Z,14.60
2018-04-25T04:44:26.615Z,14.60
2018-04-25T04:46:54.119Z,14.60
2018-04-25T04:49:21.605Z,14.60
2018-04-25T04:51:49.101Z,14.60
2018-04-25T04:54:16.589Z,14.60
2018-04-25T04:56:44.479Z,14.60
2018-04-25T04:59:11.978Z,14.60
2018-04-25T05:01:39.454Z,14.60
2018-04-25T05:04:06.960Z,14.70
2018-04-25T05:06:34.456Z,14.70
2018-04-25T05:09:01.965Z,14.70
2018-04-25T05:11:29.464Z,14.60
2018-04-25T05:13:56.937Z,14.70
2018-04-25T05:16:24.431Z,14.60
2018-04-25T05:18:51.940Z,14.60
2018-04-25T05:21:19.462Z,14.70
2018-04-25T05:23:46.960Z,14.70
2018-04-25T05:26:14.444Z,14.70
2018-04-25T05:28:41.953Z,14.70
2018-04-25T05:31:09.437Z,14.70
2018-04-25T05:33:36.948Z,14.70
2018-04-25T05:36:04.485Z,14.70
2018-04-25T05:38:31.966Z,14.70
2018-04-25T05:41:00.769Z,14.70
2018-04-25T05:43:28.272Z,14.70
2018-04-25T05:45:58.354Z,14.80
2018-04-25T05:48:25.797Z,14.80
2018-04-25T05:50:53.302Z,14.80
2018-04-25T05:53:22.301Z,14.60
2018-04-25T05:55:49.837Z,14.60
2018-04-25T05:58:17.373Z,14.50
2018-04-25T06:00:44.877Z,14.50
2018-04-25T06:03:12.391Z,14.50
2018-04-25T06:05:39.892Z,14.60
2018-04-25T06:08:07.398Z,14.60
2018-04-25T06:10:34.877Z,14.70
2018-04-25T06:13:02.353Z,14.60
2018-04-25T06:15:30.256Z,14.60
2018-04-25T06:17:57.749Z,14.70
2018-04-25T06:20:25.269Z,14.60
2018-04-25T06:22:52.750Z,14.80
2018-04-25T06:25:20.235Z,14.90
2018-04-25T06:27:47.736Z,15.20
2018-04-25T06:30:15.250Z,15.30
2018-04-25T06:32:43.147Z,14.90
2018-04-25T06:35:10.645Z,14.90
2018-04-25T06:37:38.129Z,14.80
2018-04-25T06:40:05.636Z,14.60
2018-04-25T06:42:33.152Z,14.20
2018-04-25T06:45:01.062Z,13.50
2018-04-25T06:47:28.538Z,13.50
2018-04-25T06:49:56.017Z,13.10
2018-04-25T06:52:23.527Z,12.70
2018-04-25T06:54:51.015Z,12.50
2018-04-25T06:57:18.554Z,12.40
2018-04-25T06:59:46.075Z,12.40
2018-04-25T07:02:13.953Z,12.30
2018-04-25T07:04:41.488Z,12.30
2018-04-25T07:07:09.953Z,12.30
2018-04-25T07:09:37.448Z,12.30
2018-04-25T07:12:04.963Z,12.20
2018-04-25T07:14:32.521Z,12.20
2018-04-25T07:17:00.006Z,12.40
2018-04-25T07:19:27.884Z,12.80
2018-04-25T07:21:55.391Z,12.80
2018-04-25T07:24:22.889Z,13.30
2018-04-25T07:26:50.780Z,13.80
2018-04-25T07:29:18.277Z,13.80
2018-04-25T07:31:45.789Z,13.80
2018-04-25T07:34:13.286Z,14.00
2018-04-25T07:36:40.796Z,14.00
2018-04-25T07:39:08.309Z,13.90
2018-04-25T07:41:35.806Z,13.70
2018-04-25T07:44:03.324Z,13.70
2018-04-25T07:46:30.804Z,13.90
2018-04-25T07:48:58.290Z,14.00
2018-04-25T07:51:25.798Z,13.90
2018-04-25T07:53:53.317Z,13.90
2018-04-25T07:56:20.821Z,13.80
2018-04-25T07:58:48.333Z,13.90
2018-04-25T08:01:15.817Z,14.10
2018-04-25T08:03:43.325Z,14.30
2018-04-25T08:06:10.821Z,14.30
2018-04-25T08:08:38.348Z,14.60
2018-04-25T08:11:05.849Z,14.70
2018-04-25T08:13:45.145Z,14.80
2018-04-25T08:16:24.524Z,14.60
2018-04-25T08:19:03.960Z,14.40
2018-04-25T08:21:40.980Z,14.20
2018-04-25T08:24:08.852Z,14.10
2018-04-25T08:26:36.363Z,14.10
2018-04-25T08:29:03.872Z,14.20
2018-04-25T08:31:31.379Z,14.30
2018-04-25T08:33:58.877Z,14.20
2018-04-25T08:36:26.769Z,13.80
2018-04-25T08:38:54.284Z,13.80
2018-04-25T08:41:22.161Z,13.50
2018-04-25T08:43:50.070Z,13.40
2018-04-25T08:46:17.585Z,13.40
2018-04-25T08:48:45.501Z,13.00
2018-04-25T08:51:13.018Z,13.00
2018-04-25T08:53:40.898Z,12.80
2018-04-25T08:56:08.420Z,12.90
2018-04-25T08:58:35.903Z,12.90
2018-04-25T09:01:03.395Z,13.00
2018-04-25T09:03:30.877Z,13.20
2018-04-25T09:05:58.389Z,13.50
2018-04-25T09:08:25.899Z,14.00
2018-04-25T09:10:53.388Z,14.30
2018-04-25T09:13:20.886Z,14.70
2018-04-25T09:15:48.384Z,15.10
2018-04-25T09:18:16.275Z,15.70
2018-04-25T09:20:43.795Z,15.70
2018-04-25T09:23:11.338Z,15.90
2018-04-25T09:25:38.830Z,15.50
2018-04-25T09:28:06.710Z,15.30
2018-04-25T09:30:34.220Z,15.30
2018-04-25T09:33:01.718Z,14.80
2018-04-25T09:35:29.248Z,14.50
2018-04-25T09:37:56.731Z,14.50
2018-04-25T09:40:24.240Z,14.30
2018-04-25T09:42:51.730Z,14.60
2018-04-25T09:45:19.272Z,14.80
2018-04-25T09:47:47.177Z,15.50
2018-04-25T09:50:14.677Z,15.50
2018-04-25T09:52:42.192Z,15.50
2018-04-25T09:55:09.708Z,15.50
2018-04-25T09:57:37.240Z,15.20
2018-04-25T10:00:04.739Z,14.80
2018-04-25T10:02:33.156Z,14.40
2018-04-25T10:05:00.675Z,14.40
2018-04-25T10:07:28.205Z,14.50
2018-04-25T10:09:55.732Z,14.30
2018-04-25T10:12:23.214Z,14.50
2018-04-25T10:14:50.711Z,15.00
2018-04-25T10:17:18.648Z,15.90
2018-04-25T10:19:46.106Z,15.80
2018-04-25T10:22:13.597Z,15.80
2018-04-25T10:24:41.497Z,15.90
2018-04-25T10:27:09.000Z,15.90
2018-04-25T10:29:36.537Z,15.90
2018-04-25T10:32:04.044Z,15.60
2018-04-25T10:34:31.513Z,16.10
2018-04-25T10:36:59.006Z,16.30
2018-04-25T10:39:26.486Z,16.00
2018-04-25T10:41:53.992Z,16.10
2018-04-25T10:44:21.530Z,15.70
2018-04-25T10:46:49.420Z,15.60
2018-04-25T10:49:16.910Z,15.60
2018-04-25T10:51:44.424Z,15.40
2018-04-25T10:54:11.944Z,15.10
2018-04-25T10:56:39.444Z,15.30
2018-04-25T10:59:07.871Z,15.20
2018-04-25T11:01:35.390Z,15.30
2018-04-25T11:04:02.903Z,15.20
2018-04-25T11:06:30.400Z,15.40
2018-04-25T11:08:57.882Z,15.40
2018-04-25T11:11:25.377Z,15.20
2018-04-25T11:13:53.116Z,15.00
2018-04-25T11:16:20.597Z,15.20
2018-04-25T11:18:48.096Z,14.90
2018-04-25T11:21:15.604Z,14.80
2018-04-25T11:23:43.112Z,14.80
2018-04-25T11:26:10.623Z,14.60
2018-04-25T11:28:38.110Z,14.40
2018-04-25T11:31:05.653Z,14.40
2018-04-25T11:33:33.534Z,14.30
2018-04-25T11:36:01.014Z,14.30
2018-04-25T11:38:28.534Z,14.40
2018-04-25T11:40:56.440Z,14.40
2018-04-25T11:43:23.966Z,14.40
2018-04-25T11:45:51.883Z,13.90
2018-04-25T11:48:19.371Z,13.90
2018-04-25T11:50:46.902Z,13.80
2018-04-25T11:53:14.400Z,13.60
2018-04-25T11:55:41.915Z,13.50
2018-04-25T11:58:09.436Z,13.80
2018-04-25T12:00:36.940Z,14.30
2018-04-25T12:03:04.459Z,14.60
2018-04-25T12:05:31.970Z,14.90
2018-04-25T12:07:59.476Z,14.60
2018-04-25T12:10:26.991Z,14.20
2018-04-25T12:12:54.909Z,14.00
2018-04-25T12:15:22.457Z,14.00
2018-04-25T12:17:49.969Z,14.20
2018-04-25T12:20:17.877Z,14.20
2018-04-25T12:22:45.407Z,14.20
2018-04-25T12:25:13.310Z,14.10
2018-04-25T12:27:41.071Z,14.10
2018-04-25T12:30:08.568Z,14.20
2018-04-25T12:32:36.060Z,14.20
2018-04-25T12:35:03.969Z,14.10
2018-04-25T12:37:31.460Z,14.10
2018-04-25T12:39:59.831Z,14.00
2018-04-25T12:42:27.337Z,14.00
2018-04-25T12:44:54.824Z,13.90
2018-04-25T12:47:22.773Z,14.00
2018-04-25T12:49:50.304Z,14.00
2018-04-25T12:52:18.182Z,14.20
2018-04-25T12:54:45.656Z,14.20
2018-04-25T12:57:13.166Z,14.40
2018-04-25T12:59:40.668Z,14.40
2018-04-25T13:02:08.181Z,14.30
2018-04-25T13:04:36.084Z,14.40
2018-04-25T13:07:03.585Z,14.40
2018-04-25T13:09:31.101Z,14.50
2018-04-25T13:11:58.608Z,14.90
2018-04-25T13:14:26.197Z,14.90
2018-04-25T13:16:54.291Z,14.60
2018-04-25T13:19:21.840Z,14.20
2018-04-25T13:21:49.364Z,14.20
2018-04-25T13:24:17.280Z,14.60
2018-04-25T13:26:44.781Z,14.60
2018-04-25T13:29:12.327Z,14.60
2018-04-25T13:31:39.821Z,14.80
2018-04-25T13:34:07.354Z,14.80
2018-04-25T13:36:37.632Z,14.80
2018-04-25T13:39:05.177Z,14.80
2018-04-25T13:41:32.694Z,14.70
2018-04-25T13:44:00.193Z,14.80
2018-04-25T13:46:27.727Z,14.70
2018-04-25T13:48:55.205Z,14.60
2018-04-25T13:51:22.776Z,14.90
2018-04-25T13:53:50.294Z,15.10
2018-04-25T13:56:17.850Z,15.30
2018-04-25T13:58:45.809Z,15.50
2018-04-25T14:01:13.303Z,15.50
2018-04-25T14:03:40.798Z,15.60
2018-04-25T14:06:08.391Z,15.70
2018-04-25T14:08:36.338Z,16.50
2018-04-25T14:11:03.829Z,16.50
2018-04-25T14:13:31.763Z,16.70
2018-04-25T14:15:59.265Z,16.70
2018-04-25T14:18:26.790Z,17.30
2018-04-25T14:20:54.516Z,17.20
2018-04-25T14:23:22.063Z,16.70
2018-04-25T14:25:49.587Z,16.90
2018-04-25T14:28:17.110Z,16.70
2018-04-25T14:30:44.610Z,16.60
2018-04-25T14:33:12.518Z,16.00
2018-04-25T14:35:40.069Z,16.00
2018-04-25T14:38:07.568Z,15.50
2018-04-25T14:40:35.058Z,15.30
2018-04-25T14:43:02.574Z,15.50
2018-04-25T14:45:30.095Z,15.50
2018-04-25T14:47:57.581Z,15.40
2018-04-25T14:50:25.068Z,15.50
2018-04-25T14:52:52.974Z,16.30
2018-04-25T14:55:20.485Z,16.20
2018-04-25T14:57:47.993Z,16.40
2018-04-25T15:00:15.900Z,16.20
2018-04-25T15:02:43.417Z,16.00
2018-04-25T15:05:10.960Z,15.50
2018-04-25T15:07:38.470Z,15.40
2018-04-25T15:10:06.097Z,15.10
2018-04-25T15:12:33.582Z,15.00
2018-04-25T15:15:01.078Z,14.80
2018-04-25T15:17:28.604Z,14.40
2018-04-25T15:19:56.147Z,14.20
2018-04-25T15:22:23.655Z,14.20
2018-04-25T15:24:51.137Z,14.10
2018-04-25T15:27:18.663Z,14.00
2018-04-25T15:29:46.550Z,13.90
2018-04-25T15:32:14.107Z,13.90
2018-04-25T15:34:41.742Z,13.90
2018-04-25T15:37:09.285Z,14.00
2018-04-25T15:39:36.776Z,14.30
2018-04-25T15:42:05.938Z,14.60
2018-04-25T15:44:33.426Z,14.70
2018-04-25T15:47:00.927Z,14.80
2018-04-25T15:49:28.421Z,15.50
2018-04-25T15:51:56.321Z,16.30
2018-04-25T15:54:23.823Z,16.30
2018-04-25T15:56:51.314Z,16.60
2018-04-25T15:59:21.877Z,15.70
2018-04-25T16:01:49.379Z,15.70
2018-04-25T16:04:16.884Z,15.30
2018-04-25T16:06:44.395Z,15.10
2018-04-25T16:09:11.921Z,14.60
2018-04-25T16:11:39.437Z,14.60
2018-04-25T16:14:06.987Z,14.50
2018-04-25T16:16:35.110Z,14.70
2018-04-25T16:19:03.120Z,14.80
2018-04-25T16:21:31.120Z,14.80
2018-04-25T16:23:58.643Z,14.80
2018-04-25T16:26:26.654Z,15.00
2018-04-25T16:28:54.160Z,15.00
2018-04-25T16:31:21.697Z,15.00
2018-04-25T16:33:49.200Z,15.20
2018-04-25T16:36:17.127Z,15.00
2018-04-25T16:38:44.687Z,15.00
2018-04-25T16:41:12.205Z,14.70
2018-04-25T16:43:39.739Z,14.50
2018-04-25T16:46:07.655Z,14.50
2018-04-25T16:48:35.181Z,14.50
2018-04-25T16:51:02.698Z,14.50
2018-04-25T16:53:30.263Z,14.40
2018-04-25T16:55:57.749Z,14.30
2018-04-25T16:58:25.231Z,14.30
2018-04-25T17:00:52.722Z,14.10
2018-04-25T17:03:20.212Z,14.10
2018-04-25T17:05:48.097Z,14.10
2018-04-25T17:08:15.613Z,14.10
2018-04-25T17:10:43.101Z,14.20
2018-04-25T17:13:10.596Z,14.10
2018-04-25T17:15:38.100Z,14.00
2018-04-25T17:18:06.061Z,14.00
2018-04-25T17:20:33.976Z,13.90
2018-04-25T17:23:01.600Z,14.00
2018-04-25T17:25:29.064Z,13.90
2018-04-25T17:27:56.549Z,14.00
2018-04-25T17:30:24.071Z,14.00
2018-04-25T17:32:51.953Z,13.80
2018-04-25T17:35:19.452Z,13.80
2018-04-25T17:37:47.032Z,13.70
2018-04-25T17:40:14.577Z,13.50
2018-04-25T17:42:42.169Z,13.40
2018-04-25T17:45:10.482Z,13.30
2018-04-25T17:47:38.035Z,13.20
2018-04-25T17:50:06.125Z,13.10
2018-04-25T17:52:33.625Z,13.00
2018-04-25T17:55:01.513Z,12.90
2018-04-25T17:57:29.096Z,12.90
2018-04-25T17:59:56.937Z,12.80
2018-04-25T18:02:24.417Z,12.90
2018-04-25T18:04:51.906Z,12.90
2018-04-25T18:07:19.687Z,12.90
2018-04-25T18:09:47.538Z,12.90
2018-04-25T18:12:15.049Z,12.90
2018-04-25T18:14:42.547Z,12.90
2018-04-25T18:17:10.081Z,12.90
2018-04-25T18:19:37.641Z,12.80
2018-04-25T18:22:05.122Z,12.80
2018-04-25T18:24:32.623Z,12.70
2018-04-25T18:27:00.134Z,12.60
2018-04-25T18:29:27.614Z,12.60
2018-04-25T18:31:55.101Z,12.50
2018-04-25T18:34:22.623Z,12.40
2018-04-25T18:36:50.139Z,12.30
2018-04-25T18:39:17.668Z,12.20
2018-04-25T18:41:45.250Z,12.10
2018-04-25T18:44:13.071Z,12.00
2018-04-25T18:46:40.608Z,11.90
2018-04-25T18:49:08.097Z,11.90
2018-04-25T18:51:36.000Z,11.80
2018-04-25T18:54:03.481Z,11.80
2018-04-25T18:56:31.113Z,11.80
2018-04-25T18:58:59.259Z,11.80
2018-04-25T19:01:30.005Z,11.70
2018-04-25T19:03:57.772Z,11.70
2018-04-25T19:06:25.422Z,11.70
2018-04-25T19:08:53.252Z,11.60
2018-04-25T19:11:20.882Z,11.60
2018-04-25T19:13:48.458Z,11.60
2018-04-25T19:16:17.370Z,11.50
2018-04-25T19:18:44.926Z,11.50
2018-04-25T19:21:12.441Z,11.50
2018-04-25T19:23:39.975Z,11.40
2018-04-25T19:26:07.508Z,11.40
2018-04-25T19:28:35.315Z,11.30
2018-04-25T19:31:02.950Z,11.20
2018-04-25T19:33:31.133Z,11.00
2018-04-25T19:35:59.616Z,11.10
2018-04-25T19:38:27.210Z,11.00
2018-04-25T19:43:29.253Z,10.70
2018-04-25T19:45:56.848Z,10.80
2018-04-25T19:48:24.439Z,10.70
2018-04-25T19:50:52.093Z,10.60
2018-04-25T19:53:20.401Z,10.50
2018-04-25T19:55:47.966Z,10.40
2018-04-25T19:58:15.525Z,10.20
2018-04-25T20:00:43.360Z,10.10
2018-04-25T20:03:11.045Z,10.00
2018-04-25T20:05:38.680Z,9.90
2018-04-25T20:08:06.279Z,9.80
2018-04-25T20:10:33.927Z,9.70
2018-04-25T20:13:01.505Z,9.70
2018-04-25T20:15:29.071Z,9.60
2018-04-25T20:17:56.573Z,9.60
2018-04-25T20:20:24.078Z,9.50
2018-04-25T20:22:51.845Z,9.50
2018-04-25T20:25:19.319Z,9.40
2018-04-25T20:27:46.812Z,9.40
2018-04-25T20:30:14.323Z,9.40
2018-04-25T20:32:41.812Z,9.30
2018-04-25T20:35:09.345Z,9.30
2018-04-25T20:37:36.832Z,9.30
2018-04-25T20:40:05.448Z,9.30
2018-04-25T20:42:34.503Z,9.50
2018-04-25T20:45:02.068Z,9.50
2018-04-25T20:47:29.592Z,9.60
2018-04-25T20:49:57.053Z,9.70
2018-04-25T20:52:24.550Z,9.70
2018-04-25T20:54:52.031Z,9.80
2018-04-25T20:57:19.906Z,9.80
2018-04-25T20:59:47.445Z,9.90
2018-04-25T21:02:15.419Z,9.80
2018-04-25T21:04:42.946Z,9.80
2018-04-25T21:07:10.422Z,9.80
2018-04-25T21:09:38.297Z,9.80
2018-04-25T21:12:06.197Z,9.80
2018-04-25T21:14:33.751Z,9.80
2018-04-25T21:17:01.317Z,9.80
2018-04-25T21:19:30.874Z,9.80
2018-04-25T21:21:58.873Z,9.80
2018-04-25T21:24:31.764Z,9.80
2018-04-25T21:26:59.384Z,9.80
2018-04-25T21:29:27.360Z,9.90
2018-04-25T21:31:55.293Z,9.90
2018-04-25T21:34:22.816Z,9.90
2018-04-25T21:36:50.297Z,9.90
2018-04-25T21:39:17.827Z,10.00
2018-04-25T21:41:45.343Z,10.00
2018-04-25T21:44:12.873Z,10.10
2018-04-25T21:46:40.384Z,10.10
2018-04-25T21:49:07.892Z,10.10
2018-04-25T21:51:35.415Z,10.20
2018-04-25T21:54:02.924Z,10.10
2018-04-25T21:56:30.464Z,10.10
2018-04-25T21:58:57.948Z,10.00
2018-04-25T22:01:25.439Z,9.90
2018-04-25T22:03:52.938Z,9.90
2018-04-25T22:06:20.463Z,9.90
2018-04-25T22:08:47.946Z,9.90
2018-04-25T22:11:15.433Z,9.90
2018-04-25T22:13:42.946Z,9.90
2018-04-25T22:16:10.426Z,9.90
2018-04-25T22:18:37.946Z,10.00
2018-04-25T22:21:05.464Z,10.00
2018-04-25T22:23:33.393Z,10.00
2018-04-25T22:26:00.944Z,10.00
2018-04-25T22:28:28.431Z,9.90
2018-04-25T22:30:55.948Z,9.90
2018-04-25T22:33:23.452Z,9.80
2018-04-25T22:35:51.031Z,9.80
2018-04-25T22:38:18.610Z,9.80
2018-04-25T22:40:46.100Z,9.90
2018-04-25T22:43:13.612Z,9.90
2018-04-25T22:45:41.117Z,10.00
2018-04-25T22:48:08.611Z,10.10
2018-04-25T22:50:36.101Z,10.00
2018-04-25T22:53:03.597Z,10.00
2018-04-25T22:55:31.151Z,10.10
2018-04-25T22:57:58.658Z,10.00
2018-04-25T23:00:26.196Z,10.00
2018-04-25T23:02:54.179Z,9.90
2018-04-25T23:05:22.170Z,9.90
2018-04-25T23:07:50.125Z,9.90
2018-04-25T23:10:18.096Z,9.90
2018-04-25T23:12:45.628Z,9.90
2018-04-25T23:15:13.192Z,9.90
2018-04-25T23:17:42.367Z,9.90
2018-04-25T23:20:09.959Z,9.80
2018-04-25T23:22:38.006Z,9.90
2018-04-25T23:25:06.033Z,9.90
2018-04-25T23:27:33.963Z,9.90
2018-04-25T23:30:01.578Z,9.90
2018-04-25T23:32:29.139Z,9.90
2018-04-25T23:34:56.622Z,9.90
2018-04-25T23:37:24.107Z,9.90
2018-04-25T23:39:51.988Z,9.80
2018-04-25T23:42:19.490Z,9.80
2018-04-25T23:44:46.990Z,9.70
2018-04-25T23:47:21.079Z,9.60
2018-04-25T23:49:48.658Z,9.60
2018-04-25T23:52:20.053Z,9.50
2018-04-25T23:54:47.717Z,9.50
2018-04-25T23:57:15.301Z,9.40
2018-04-25T23:59:43.298Z,9.30
